Time;durP1;ratioP1;P1;durP2;ratioP2;P2;SDS_P1;SDS_P2;PMS_P1;PMS_P2;Temp;Humidity;BMP_temperature;BMP_pressure;BME280_temperature;BME280_humidity;BME280_pressure;Samples;Min_cycle;Max_cycle;Signal;HPM_P1;HPM_P2
2021/11/07 00:05:06;;;;;;;3.30;0.70;;;20.10;46.20;;;;;;4919466;29;20079;-65
2021/11/07 00:07:58;;;;;;;3.63;1.10;;;20.10;46.20;;;;;;4919112;29;20515;-65
2021/11/07 00:12:54;;;;;;;1.42;0.70;;;20.10;46.20;;;;;;4919261;29;20059;-65
2021/11/07 00:15:20;;;;;;;2.15;1.05;;;20.10;46.20;;;;;;4919056;29;20119;-65
2021/11/07 00:17:54;;;;;;;2.50;0.88;;;20.10;46.20;;;;;;4919011;29;20063;-65
2021/11/07 00:20:27;;;;;;;0.65;0.50;;;20.10;46.20;;;;;;4918915;29;20028;-65
2021/11/07 00:23:04;;;;;;;2.03;0.75;;;20.10;46.20;;;;;;4919021;29;20059;-65
2021/11/07 00:25:42;;;;;;;2.33;0.90;;;20.10;46.20;;;;;;4918878;29;20096;-65
2021/11/07 00:28:14;;;;;;;2.17;0.75;;;20.10;46.20;;;;;;4918751;29;20020;-65
2021/11/07 00:30:52;;;;;;;1.50;0.70;;;20.10;46.30;;;;;;4918523;29;20139;-65
2021/11/07 00:33:27;;;;;;;1.67;0.80;;;20.10;46.30;;;;;;4918807;29;20024;-65
2021/11/07 00:39:11;;;;;;;1.92;0.80;;;20.10;46.30;;;;;;4897475;29;20043;-65
2021/11/07 00:42:00;;;;;;;2.00;0.80;;;20.10;46.30;;;;;;4915827;29;20044;-65
2021/11/07 00:47:59;;;;;;;1.52;0.70;;;20.10;46.30;;;;;;4918701;29;20039;-65
2021/11/07 00:50:11;;;;;;;2.80;0.80;;;20.10;46.40;;;;;;4915357;29;20396;-65
2021/11/07 00:52:49;;;;;;;1.45;0.70;;;20.00;46.30;;;;;;4918371;29;20031;-65
2021/11/07 00:55:22;;;;;;;3.85;1.00;;;20.00;46.40;;;;;;4918183;29;20388;-64
2021/11/07 01:00:50;;;;;;;2.20;0.63;;;20.10;46.40;;;;;;4918468;29;20028;-65
2021/11/07 01:03:14;;;;;;;1.83;0.70;;;20.10;46.40;;;;;;4917976;29;20049;-65
2021/11/07 01:05:40;;;;;;;2.55;1.05;;;20.00;46.40;;;;;;4918134;29;20059;-65
2021/11/07 01:08:06;;;;;;;1.92;0.75;;;20.00;46.40;;;;;;4917973;29;20503;-65
2021/11/07 01:10:32;;;;;;;1.38;0.63;;;20.10;46.40;;;;;;4917891;29;20032;-65
2021/11/07 01:12:58;;;;;;;2.10;0.52;;;20.00;46.40;;;;;;4917853;29;20020;-65
2021/11/07 01:15:25;;;;;;;1.52;0.60;;;20.10;46.50;;;;;;4917752;29;20130;-65
2021/11/07 01:17:51;;;;;;;1.73;0.68;;;20.10;46.50;;;;;;4917769;29;20028;-65
2021/11/07 01:20:20;;;;;;;2.03;0.52;;;20.00;46.40;;;;;;4917716;29;20024;-65
2021/11/07 01:25:11;;;;;;;2.78;0.60;;;20.10;46.50;;;;;;4917895;29;20032;-65
2021/11/07 01:27:42;;;;;;;1.95;0.70;;;20.00;46.50;;;;;;4916357;29;20025;-65
2021/11/07 01:30:14;;;;;;;1.88;1.02;;;20.00;46.50;;;;;;4917691;29;20095;-65
2021/11/07 01:32:45;;;;;;;2.58;0.75;;;20.00;46.50;;;;;;4917868;29;20028;-65
2021/11/07 01:35:21;;;;;;;1.52;0.77;;;20.00;46.50;;;;;;4916172;29;20032;-65
2021/11/07 01:38:11;;;;;;;2.38;0.93;;;20.00;46.60;;;;;;4917485;29;20028;-65
2021/11/07 01:40:48;;;;;;;2.00;0.73;;;20.00;46.50;;;;;;4916214;29;20029;-65
2021/11/07 01:43:15;;;;;;;2.78;0.73;;;20.00;46.60;;;;;;4917438;29;20024;-65
2021/11/07 01:45:46;;;;;;;1.70;0.75;;;20.00;46.60;;;;;;4916051;29;20028;-65
2021/11/07 01:48:18;;;;;;;2.55;0.82;;;20.00;46.60;;;;;;4917361;29;20024;-65
2021/11/07 01:50:52;;;;;;;2.03;0.77;;;20.00;46.60;;;;;;4917586;29;20036;-64
2021/11/07 01:53:22;;;;;;;1.48;0.65;;;20.00;46.60;;;;;;4917294;29;20397;-65
2021/11/07 01:55:49;;;;;;;1.88;0.68;;;20.00;46.60;;;;;;4917609;29;20048;-65
2021/11/07 01:58:14;;;;;;;2.22;0.80;;;20.00;46.60;;;;;;4917315;29;20031;-65
2021/11/07 02:00:41;;;;;;;1.10;0.43;;;20.00;46.70;;;;;;4915762;29;20032;-65
2021/11/07 02:03:07;;;;;;;1.60;0.57;;;20.00;46.70;;;;;;4917280;29;20470;-67
2021/11/07 02:05:32;;;;;;;1.55;0.57;;;20.00;46.60;;;;;;4916926;29;20024;-65
2021/11/07 02:07:58;;;;;;;2.67;0.80;;;20.00;46.70;;;;;;4916965;29;20028;-65
2021/11/07 02:10:23;;;;;;;1.27;0.60;;;20.00;46.70;;;;;;4916923;29;20035;-65
2021/11/07 02:12:49;;;;;;;2.70;0.88;;;20.00;46.70;;;;;;4916834;29;20036;-65
2021/11/07 02:15:19;;;;;;;1.48;0.40;;;20.00;46.70;;;;;;4916739;29;20091;-65
2021/11/07 02:17:46;;;;;;;1.80;0.70;;;20.00;46.70;;;;;;4916741;29;20027;-65
2021/11/07 02:20:32;;;;;;;3.35;0.90;;;20.00;46.70;;;;;;4915756;29;20033;-65
2021/11/07 02:23:01;;;;;;;2.08;0.70;;;20.00;46.70;;;;;;4916616;29;20056;-65
2021/11/07 02:25:27;;;;;;;2.72;1.08;;;20.00;46.70;;;;;;4916656;29;20032;-65
2021/11/07 02:27:54;;;;;;;1.75;0.70;;;20.00;46.80;;;;;;4916664;29;20024;-65
2021/11/07 02:30:20;;;;;;;2.97;1.00;;;20.00;46.80;;;;;;4916677;29;20065;-65
2021/11/07 02:32:47;;;;;;;1.88;0.65;;;20.00;46.80;;;;;;4916690;29;20031;-65
2021/11/07 02:35:13;;;;;;;1.15;0.55;;;20.00;46.80;;;;;;4916684;29;20497;-65
2021/11/07 02:37:40;;;;;;;2.13;0.70;;;20.00;46.80;;;;;;4916702;29;20071;-65
2021/11/07 02:40:07;;;;;;;0.98;0.50;;;20.00;46.80;;;;;;4916909;29;20119;-65
2021/11/07 02:42:35;;;;;;;1.77;0.55;;;20.00;46.80;;;;;;4916711;29;20024;-65
2021/11/07 02:45:02;;;;;;;3.03;0.60;;;20.00;46.80;;;;;;4916760;29;20024;-65
2021/11/07 02:47:28;;;;;;;2.13;0.80;;;20.00;46.80;;;;;;4916842;29;20028;-64
2021/11/07 02:49:54;;;;;;;1.55;0.70;;;20.00;46.80;;;;;;4916770;29;20047;-65
2021/11/07 02:52:19;;;;;;;1.85;0.60;;;20.00;46.80;;;;;;4916701;29;20037;-65
2021/11/07 02:54:45;;;;;;;1.67;0.70;;;20.00;46.90;;;;;;4916500;29;20030;-65
2021/11/07 02:57:13;;;;;;;3.40;0.93;;;20.00;46.90;;;;;;4915408;29;20032;-65
2021/11/07 02:59:41;;;;;;;1.77;0.60;;;20.00;46.90;;;;;;4916611;29;20032;-65
2021/11/07 03:02:08;;;;;;;1.65;0.73;;;20.00;46.90;;;;;;4915278;29;20028;-65
2021/11/07 03:04:34;;;;;;;1.65;0.60;;;20.00;46.90;;;;;;4918035;29;20459;-65
2021/11/07 03:07:01;;;;;;;2.70;0.82;;;20.00;46.90;;;;;;4920148;29;20052;-65
2021/11/07 03:09:30;;;;;;;1.88;0.60;;;20.00;46.90;;;;;;4920045;29;20079;-65
2021/11/07 03:11:56;;;;;;;1.35;0.65;;;20.00;46.90;;;;;;4920111;29;20480;-65
2021/11/07 03:14:27;;;;;;;1.92;0.60;;;20.00;46.90;;;;;;4920060;29;20058;-65
2021/11/07 03:16:54;;;;;;;1.40;0.60;;;20.00;46.90;;;;;;4919948;29;20028;-65
2021/11/07 03:19:22;;;;;;;1.42;0.60;;;20.00;46.90;;;;;;4920014;29;20028;-65
2021/11/07 03:21:51;;;;;;;1.52;0.60;;;20.00;46.90;;;;;;4919869;29;20028;-65
2021/11/07 03:24:18;;;;;;;3.88;0.90;;;20.00;47.00;;;;;;4920082;29;20028;-65
2021/11/07 03:26:44;;;;;;;0.50;0.30;;;20.00;47.00;;;;;;4919806;29;20028;-65
2021/11/07 03:29:11;;;;;;;0.98;0.50;;;20.00;47.00;;;;;;4918618;29;20106;-65
2021/11/07 03:31:48;;;;;;;1.02;0.52;;;20.00;47.00;;;;;;4919578;29;20048;-65
2021/11/07 03:34:26;;;;;;;2.78;0.70;;;20.00;47.00;;;;;;4919635;29;20039;-65
2021/11/07 03:36:55;;;;;;;1.70;0.75;;;20.00;47.00;;;;;;4919718;29;20043;-65
2021/11/07 03:39:21;;;;;;;3.55;0.90;;;20.00;47.00;;;;;;4919582;29;20486;-65
2021/11/07 03:41:47;;;;;;;1.65;0.80;;;20.00;47.10;;;;;;4918314;29;20135;-65
2021/11/07 03:44:14;;;;;;;1.08;0.52;;;20.00;47.10;;;;;;4919656;29;20108;-65
2021/11/07 03:46:41;;;;;;;1.60;0.60;;;20.00;47.00;;;;;;4919729;29;20432;-65
2021/11/07 03:49:09;;;;;;;3.35;0.90;;;20.00;47.10;;;;;;4919578;29;20036;-65
2021/11/07 03:51:35;;;;;;;1.02;0.40;;;20.00;47.10;;;;;;4919820;29;20024;-65
2021/11/07 03:54:03;;;;;;;0.88;0.50;;;20.00;47.10;;;;;;4919749;29;20028;-65
2021/11/07 03:56:29;;;;;;;1.10;0.63;;;20.00;47.10;;;;;;4919423;29;20032;-65
2021/11/07 03:58:54;;;;;;;1.02;0.60;;;20.00;47.10;;;;;;4919239;29;20087;-65
2021/11/07 04:01:20;;;;;;;1.65;0.68;;;20.00;47.10;;;;;;4919138;29;20032;-65
2021/11/07 04:03:46;;;;;;;0.98;0.50;;;20.00;47.10;;;;;;4919284;29;20029;-65
2021/11/07 04:06:13;;;;;;;1.30;0.50;;;20.00;47.10;;;;;;4919280;29;20420;-65
2021/11/07 04:08:40;;;;;;;0.63;0.30;;;20.00;47.10;;;;;;4917892;29;20036;-65
2021/11/07 04:11:06;;;;;;;1.75;0.50;;;20.00;47.10;;;;;;4919216;29;20028;-65
2021/11/07 04:13:32;;;;;;;1.00;0.50;;;20.00;47.10;;;;;;4919262;29;20034;-65
2021/11/07 04:15:58;;;;;;;1.98;0.80;;;20.00;47.10;;;;;;4918947;29;20817;-65
2021/11/07 04:18:24;;;;;;;1.38;0.60;;;20.00;47.10;;;;;;4919133;29;20529;-65
2021/11/07 04:20:49;;;;;;;1.45;0.60;;;20.00;47.10;;;;;;4918874;29;20024;-65
2021/11/07 04:23:15;;;;;;;1.02;0.65;;;20.00;47.10;;;;;;4918835;29;20024;-65
2021/11/07 04:25:41;;;;;;;1.95;0.80;;;20.00;47.20;;;;;;4919176;29;20032;-65
2021/11/07 04:28:07;;;;;;;1.85;0.80;;;20.00;47.20;;;;;;4918688;29;20418;-65
2021/11/07 04:30:34;;;;;;;2.30;0.60;;;20.00;47.20;;;;;;4918641;29;20122;-65
2021/11/07 04:33:00;;;;;;;1.05;0.50;;;20.00;47.20;;;;;;4918707;29;20028;-65
2021/11/07 04:35:26;;;;;;;0.75;0.50;;;20.00;47.20;;;;;;4918525;29;20396;-65
2021/11/07 04:37:52;;;;;;;2.22;0.82;;;20.00;47.20;;;;;;4918591;29;20036;-65
2021/11/07 04:40:18;;;;;;;1.42;0.60;;;20.00;47.20;;;;;;4918868;29;20024;-65
2021/11/07 04:42:44;;;;;;;1.48;0.70;;;20.00;47.20;;;;;;4918438;29;20468;-65
2021/11/07 04:45:10;;;;;;;0.75;0.35;;;20.00;47.20;;;;;;4918524;29;20088;-65
2021/11/07 04:47:36;;;;;;;2.33;0.80;;;20.00;47.20;;;;;;4918385;29;20037;-65
2021/11/07 04:50:03;;;;;;;2.15;0.80;;;20.00;47.20;;;;;;4918341;29;20020;-65
2021/11/07 04:52:28;;;;;;;1.67;0.50;;;19.90;47.20;;;;;;4918544;29;20028;-65
2021/11/07 04:54:54;;;;;;;2.30;0.63;;;20.00;47.30;;;;;;4918177;29;20068;-65
2021/11/07 04:57:20;;;;;;;2.08;0.85;;;20.00;47.30;;;;;;4918467;29;20032;-65
2021/11/07 04:59:45;;;;;;;1.15;0.50;;;20.00;47.30;;;;;;4918174;29;20024;-65
2021/11/07 05:02:11;;;;;;;1.17;0.60;;;20.00;47.30;;;;;;4918116;29;20024;-65
2021/11/07 05:04:37;;;;;;;1.02;0.40;;;20.00;47.30;;;;;;4918105;29;20472;-65
2021/11/07 05:07:03;;;;;;;0.77;0.57;;;20.00;47.30;;;;;;4918087;29;20095;-65
2021/11/07 05:09:28;;;;;;;1.63;0.70;;;20.00;47.30;;;;;;4917979;29;20039;-65
2021/11/07 05:11:54;;;;;;;3.58;0.60;;;20.00;47.30;;;;;;4917990;29;20115;-65
2021/11/07 05:14:20;;;;;;;1.88;0.60;;;20.00;47.30;;;;;;4917886;29;20028;-65
2021/11/07 05:16:46;;;;;;;1.63;0.70;;;20.00;47.30;;;;;;4917755;29;20497;-65
2021/11/07 05:19:12;;;;;;;2.45;0.77;;;20.00;47.30;;;;;;4917801;29;20036;-65
2021/11/07 05:21:39;;;;;;;1.20;0.50;;;20.00;47.30;;;;;;4917739;29;20024;-65
2021/11/07 05:24:05;;;;;;;1.42;0.52;;;20.00;47.30;;;;;;4917767;29;20048;-65
2021/11/07 05:26:30;;;;;;;4.18;1.00;;;20.00;47.30;;;;;;4917131;29;20058;-65
2021/11/07 05:28:56;;;;;;;1.42;0.60;;;20.00;47.20;;;;;;4917577;29;20469;-65
2021/11/07 05:31:22;;;;;;;1.17;0.57;;;20.10;47.20;;;;;;4917375;29;20063;-65
2021/11/07 05:33:48;;;;;;;1.60;0.63;;;20.10;47.20;;;;;;4917536;29;20020;-65
2021/11/07 05:36:14;;;;;;;2.80;0.70;;;20.10;47.20;;;;;;4917419;29;20095;-65
2021/11/07 05:38:40;;;;;;;1.75;0.68;;;20.10;47.20;;;;;;4917721;29;20400;-65
2021/11/07 05:41:06;;;;;;;0.70;0.40;;;20.10;47.20;;;;;;4917479;29;20028;-65
2021/11/07 05:43:32;;;;;;;1.23;0.52;;;20.10;47.20;;;;;;4917664;29;20365;-64
2021/11/07 05:45:58;;;;;;;1.80;0.70;;;20.20;47.20;;;;;;4917396;29;20070;-64
2021/11/07 05:48:23;;;;;;;1.95;0.50;;;20.20;47.20;;;;;;4917370;29;20067;-65
2021/11/07 05:50:49;;;;;;;1.42;0.60;;;20.20;47.10;;;;;;4917274;29;20028;-65
2021/11/07 05:53:15;;;;;;;1.65;0.68;;;20.20;47.20;;;;;;4917323;29;20084;-65
2021/11/07 05:55:41;;;;;;;1.45;0.60;;;20.20;47.20;;;;;;4917334;29;20100;-65
2021/11/07 05:58:06;;;;;;;1.70;0.73;;;20.20;47.10;;;;;;4917432;29;20036;-65
2021/11/07 06:00:33;;;;;;;1.60;0.73;;;20.20;47.10;;;;;;4917161;29;20038;-65
2021/11/07 06:03:01;;;;;;;1.60;0.50;;;20.20;47.10;;;;;;4917341;29;20024;-65
2021/11/07 06:05:27;;;;;;;0.88;0.70;;;20.20;47.20;;;;;;4917135;29;20085;-65
2021/11/07 06:07:53;;;;;;;2.55;0.88;;;20.20;47.20;;;;;;4917295;29;20111;-65
2021/11/07 06:10:19;;;;;;;2.08;0.70;;;20.20;47.20;;;;;;4916980;29;20524;-65
2021/11/07 06:12:45;;;;;;;1.58;0.50;;;20.30;47.20;;;;;;4915747;29;20119;-65
2021/11/07 06:15:11;;;;;;;1.77;0.50;;;20.20;47.20;;;;;;4915617;29;20075;-65
2021/11/07 06:17:36;;;;;;;2.20;0.90;;;20.20;47.20;;;;;;4916924;29;20044;-65
2021/11/07 06:20:04;;;;;;;1.75;0.70;;;20.20;47.20;;;;;;4917154;29;20027;-65
2021/11/07 06:22:30;;;;;;;2.15;0.90;;;20.20;47.30;;;;;;4916932;29;20036;-65
2021/11/07 06:24:56;;;;;;;1.48;0.50;;;20.20;47.30;;;;;;4916793;29;20391;-65
2021/11/07 06:27:21;;;;;;;2.05;0.80;;;20.20;47.30;;;;;;4917029;29;20084;-65
2021/11/07 06:29:47;;;;;;;1.35;0.65;;;20.30;47.30;;;;;;4916593;29;20487;-65
2021/11/07 06:32:13;;;;;;;2.05;0.70;;;20.20;47.30;;;;;;4916785;29;20060;-65
2021/11/07 06:34:38;;;;;;;1.25;0.52;;;20.20;47.40;;;;;;4916668;29;20063;-65
2021/11/07 06:37:06;;;;;;;2.42;0.85;;;20.20;47.30;;;;;;4916752;29;20044;-65
2021/11/07 06:39:32;;;;;;;0.98;0.47;;;20.20;47.40;;;;;;4918577;29;20440;-65
2021/11/07 06:41:57;;;;;;;1.85;0.57;;;20.20;47.40;;;;;;4920665;29;20163;-65
2021/11/07 06:44:23;;;;;;;1.65;0.57;;;20.20;47.40;;;;;;4920573;29;20070;-65
2021/11/07 06:46:49;;;;;;;2.35;0.70;;;20.30;47.40;;;;;;4920810;29;20029;-65
2021/11/07 06:49:14;;;;;;;1.85;0.68;;;20.20;47.40;;;;;;4920496;29;20035;-65
2021/11/07 06:51:45;;;;;;;1.13;0.50;;;20.20;47.40;;;;;;4920492;29;20029;-65
2021/11/07 06:54:12;;;;;;;1.35;0.63;;;20.20;47.40;;;;;;4920419;29;20028;-65
2021/11/07 06:56:38;;;;;;;1.92;0.60;;;20.20;47.40;;;;;;4919072;29;20119;-65
2021/11/07 06:59:06;;;;;;;1.70;0.63;;;20.30;47.50;;;;;;4920463;29;20028;-65
2021/11/07 07:01:33;;;;;;;1.50;0.50;;;20.30;47.40;;;;;;4920272;29;20404;-65
2021/11/07 07:03:59;;;;;;;3.17;0.80;;;20.20;47.40;;;;;;4920283;29;20056;-65
2021/11/07 07:06:24;;;;;;;1.45;0.50;;;20.20;47.40;;;;;;4920480;29;20127;-65
2021/11/07 07:08:57;;;;;;;1.65;0.50;;;20.30;47.50;;;;;;4920200;29;20049;-65
2021/11/07 07:11:31;;;;;;;2.05;0.70;;;20.30;47.50;;;;;;4920397;29;20028;-65
2021/11/07 07:14:04;;;;;;;2.97;0.60;;;20.30;47.50;;;;;;4920146;29;20028;-65
2021/11/07 07:16:40;;;;;;;3.85;0.70;;;20.30;47.50;;;;;;4919991;29;20040;-65
2021/11/07 07:19:42;;;;;;;1.35;0.60;;;20.20;47.50;;;;;;4919990;29;20039;-65
2021/11/07 07:22:11;;;;;;;1.40;0.60;;;20.30;47.50;;;;;;4919756;29;20096;-65
2021/11/07 07:24:51;;;;;;;1.50;0.73;;;20.20;47.40;;;;;;4920098;29;20028;-65
2021/11/07 07:30:09;;;;;;;1.70;0.60;;;20.30;47.50;;;;;;4919929;29;20047;-65
2021/11/07 07:35:02;;;;;;;1.83;0.85;;;20.30;47.50;;;;;;4919675;29;20115;-65
2021/11/07 07:37:28;;;;;;;0.80;0.52;;;20.30;47.50;;;;;;4919682;29;20063;-65
2021/11/07 07:39:53;;;;;;;1.83;0.70;;;20.30;47.50;;;;;;4919586;29;20128;-64
2021/11/07 07:42:20;;;;;;;2.88;1.10;;;20.30;47.50;;;;;;4919459;29;20044;-65
2021/11/07 07:44:49;;;;;;;1.67;0.70;;;20.30;47.50;;;;;;4919731;29;20087;-65
2021/11/07 07:47:15;;;;;;;1.42;0.60;;;20.30;47.50;;;;;;4919489;29;20468;-65
2021/11/07 07:49:41;;;;;;;2.03;0.55;;;20.30;47.50;;;;;;4918986;29;20099;-65
2021/11/07 07:52:07;;;;;;;2.22;0.80;;;20.30;47.50;;;;;;4919919;29;20024;-65
2021/11/07 07:54:32;;;;;;;2.10;0.70;;;20.30;47.50;;;;;;4919325;29;20374;-65
2021/11/07 07:56:58;;;;;;;2.28;0.70;;;20.30;47.50;;;;;;4919199;29;20043;-65
2021/11/07 07:59:23;;;;;;;0.98;0.50;;;20.30;47.50;;;;;;4919322;29;20016;-65
2021/11/07 08:01:51;;;;;;;1.85;0.63;;;20.30;47.50;;;;;;4919525;29;20032;-65
2021/11/07 08:04:17;;;;;;;1.02;0.65;;;20.30;47.50;;;;;;4919245;29;20020;-65
2021/11/07 08:06:42;;;;;;;1.45;0.63;;;20.30;47.50;;;;;;4919149;29;20032;-65
2021/11/07 08:09:08;;;;;;;1.95;0.50;;;20.30;47.50;;;;;;4919063;29;20032;-65
2021/11/07 08:11:33;;;;;;;1.63;0.70;;;20.30;47.50;;;;;;4919056;29;20472;-65
2021/11/07 08:13:59;;;;;;;3.38;0.80;;;20.30;47.50;;;;;;4919099;29;20028;-65
2021/11/07 08:16:26;;;;;;;3.13;0.85;;;20.30;47.50;;;;;;4918970;29;20584;-65
2021/11/07 08:18:53;;;;;;;1.17;0.50;;;20.30;47.60;;;;;;4918929;29;20362;-65
2021/11/07 08:21:19;;;;;;;2.55;0.90;;;20.30;47.50;;;;;;4918893;29;20024;-65
2021/11/07 08:23:53;;;;;;;1.42;0.43;;;20.30;47.60;;;;;;4918829;29;20028;-65
2021/11/07 08:26:20;;;;;;;1.83;0.70;;;20.30;47.60;;;;;;4918863;29;20549;-66
2021/11/07 08:28:46;;;;;;;2.13;0.80;;;20.30;47.60;;;;;;4918830;29;20491;-66
2021/11/07 08:31:21;;;;;;;1.77;0.73;;;20.30;47.60;;;;;;4918638;29;20127;-66
2021/11/07 08:33:46;;;;;;;;;;;20.30;47.60;;;;;;4919385;29;20028;-66
2021/11/07 08:36:17;;;;;;;1.17;0.40;;;20.40;47.60;;;;;;4918556;29;19915;-66
2021/11/07 08:38:51;;;;;;;2.42;0.60;;;20.30;47.60;;;;;;4918669;29;20032;-66
2021/11/07 08:41:18;;;;;;;1.65;0.50;;;20.30;47.60;;;;;;4902676;29;20032;-66
2021/11/07 09:05:29;;;;;;;1.77;0.70;;;20.30;47.60;;;;;;4918411;29;20042;-66
2021/11/07 09:10:35;;;;;;;3.63;0.88;;;20.30;47.60;;;;;;4918187;29;20032;-66
2021/11/07 09:13:04;;;;;;;1.55;0.60;;;20.30;47.70;;;;;;4918236;29;20417;-66
2021/11/07 09:15:31;;;;;;;1.52;0.57;;;20.40;47.70;;;;;;4918091;29;20035;-66
2021/11/07 09:17:57;;;;;;;2.55;0.75;;;20.30;47.80;;;;;;4916518;29;20038;-66
2021/11/07 09:23:18;;;;;;;1.75;0.75;;;20.40;47.70;;;;;;4918126;29;20040;-66
2021/11/07 09:26:01;;;;;;;1.63;0.60;;;20.30;47.70;;;;;;4917995;29;20085;-66
2021/11/07 09:28:31;;;;;;;2.65;0.85;;;20.40;47.70;;;;;;4917667;29;20543;-66
2021/11/07 09:31:10;;;;;;;1.83;0.60;;;20.30;47.70;;;;;;4917404;29;20090;-66
2021/11/07 09:38:48;;;;;;;2.05;0.70;;;20.30;47.70;;;;;;4917779;29;20059;-66
2021/11/07 09:41:27;;;;;;;2.05;0.50;;;20.40;47.70;;;;;;4917534;29;20066;-66
2021/11/07 09:44:05;;;;;;;1.40;0.68;;;20.40;47.70;;;;;;4917414;29;20042;-66
2021/11/07 09:49:11;;;;;;;2.17;0.70;;;20.40;47.60;;;;;;4917499;29;20028;-66
2021/11/07 09:51:37;;;;;;;2.38;0.77;;;20.40;47.70;;;;;;4917244;29;20032;-66
2021/11/07 09:54:03;;;;;;;1.13;0.60;;;20.40;47.60;;;;;;4917215;29;20028;-65
2021/11/07 09:56:31;;;;;;;3.92;1.02;;;20.40;47.60;;;;;;4917362;29;20043;-64
2021/11/07 09:58:59;;;;;;;2.85;0.70;;;20.40;47.50;;;;;;4917046;29;20036;-64
2021/11/07 10:01:27;;;;;;;3.65;0.93;;;20.50;47.40;;;;;;4917105;29;20376;-64
2021/11/07 10:03:54;;;;;;;1.65;0.70;;;20.50;47.40;;;;;;4917123;29;20028;-65
2021/11/07 10:06:35;;;;;;;1.55;0.60;;;20.50;47.50;;;;;;4917399;29;20032;-64
2021/11/07 10:09:03;;;;;;;2.38;0.75;;;20.50;47.50;;;;;;4917133;29;20032;-64
2021/11/07 10:11:35;;;;;;;2.45;0.60;;;20.50;47.50;;;;;;4917010;29;20040;-65
2021/11/07 10:14:13;;;;;;;1.85;0.60;;;20.50;47.40;;;;;;4917094;29;20109;-65
2021/11/07 10:16:46;;;;;;;1.10;0.60;;;20.50;47.40;;;;;;4915911;29;20040;-65
2021/11/07 10:19:31;;;;;;;2.70;1.02;;;20.50;47.40;;;;;;4917049;29;20036;-65
2021/11/07 10:21:57;;;;;;;2.83;1.02;;;20.50;47.40;;;;;;4915727;29;20020;-65
2021/11/07 10:24:29;;;;;;;3.40;0.80;;;20.50;47.40;;;;;;4899908;29;20111;-65
2021/11/07 10:26:59;;;;;;;1.83;0.77;;;20.50;47.40;;;;;;4917332;29;20043;-65
2021/11/07 10:29:35;;;;;;;1.33;0.52;;;20.60;47.30;;;;;;4916879;29;20474;-64
2021/11/07 10:32:19;;;;;;;2.83;0.70;;;20.50;47.30;;;;;;4916686;29;20067;-65
2021/11/07 10:35:11;;;;;;;2.83;0.90;;;20.60;47.30;;;;;;4916701;29;20058;-65
2021/11/07 10:38:00;;;;;;;2.13;0.60;;;20.60;47.30;;;;;;4916834;29;20039;-65
2021/11/07 10:41:12;;;;;;;1.70;0.60;;;20.60;47.30;;;;;;4915504;29;20115;-65
2021/11/07 10:54:26;;;;;;;4.72;0.60;;;20.60;47.20;;;;;;4916567;29;20066;-65
2021/11/07 10:57:15;;;;;;;2.92;0.80;;;20.60;47.30;;;;;;4916625;29;20036;-65
2021/11/07 10:59:42;;;;;;;3.13;1.27;;;20.60;47.30;;;;;;4916592;29;20020;-65
2021/11/07 11:02:34;;;;;;;2.60;0.82;;;20.50;47.30;;;;;;4915215;29;20067;-65
2021/11/07 11:05:12;;;;;;;1.58;0.70;;;20.50;47.30;;;;;;4916443;29;20380;-66
2021/11/07 11:07:57;;;;;;;1.52;0.55;;;20.50;47.40;;;;;;4915410;29;20395;-65
2021/11/07 11:10:30;;;;;;;2.90;0.90;;;20.50;47.50;;;;;;4916230;29;20449;-66
2021/11/07 11:13:01;;;;;;;3.05;0.73;;;20.50;47.40;;;;;;4916338;29;20032;-66
2021/11/07 11:15:36;;;;;;;1.73;0.65;;;20.50;47.40;;;;;;4916196;29;20040;-66
2021/11/07 11:18:18;;;;;;;3.38;0.82;;;20.50;47.40;;;;;;4915065;29;20024;-65
2021/11/07 11:29:22;;;;;;;1.90;0.77;;;20.50;47.20;;;;;;4919974;29;20032;-66
2021/11/07 11:34:21;;;;;;;1.60;0.80;;;20.60;47.20;;;;;;4919844;29;20028;-65
2021/11/07 11:36:55;;;;;;;2.42;0.80;;;20.50;47.20;;;;;;4919487;29;20488;-66
2021/11/07 11:39:36;;;;;;;1.63;0.57;;;20.50;47.20;;;;;;4919641;29;20035;-66
2021/11/07 11:42:08;;;;;;;1.27;0.50;;;20.60;47.20;;;;;;4919571;29;20039;-66
2021/11/07 11:44:34;;;;;;;3.55;0.82;;;20.60;47.10;;;;;;4919596;29;20392;-66
2021/11/07 11:47:36;;;;;;;3.63;0.70;;;20.50;47.20;;;;;;4919560;29;20033;-66
2021/11/07 11:50:21;;;;;;;3.78;0.68;;;20.50;47.30;;;;;;4919410;29;20508;-66
2021/11/07 11:53:10;;;;;;;3.70;0.52;;;20.50;47.30;;;;;;4919318;29;20028;-67
2021/11/07 11:55:41;;;;;;;1.70;0.50;;;20.50;47.30;;;;;;4919147;29;20067;-66
2021/11/07 12:03:37;;;;;;;1.90;0.60;;;20.50;47.30;;;;;;4919528;29;20075;-66
2021/11/07 12:06:50;;;;;;;4.40;0.68;;;20.50;47.30;;;;;;4919475;29;20376;-66
2021/11/07 12:09:35;;;;;;;2.35;0.40;;;20.50;47.30;;;;;;4916931;29;20040;-66
2021/11/07 12:12:33;;;;;;;3.08;0.70;;;20.40;47.40;;;;;;4919164;29;20028;-67
2021/11/07 12:17:46;;;;;;;2.58;0.80;;;20.40;47.40;;;;;;4919289;29;20031;-64
2021/11/07 12:20:25;;;;;;;1.45;0.63;;;20.40;47.40;;;;;;4918928;29;20021;-65
2021/11/07 12:23:14;;;;;;;4.22;0.93;;;20.40;47.40;;;;;;4918737;29;20095;-64
2021/11/07 12:25:41;;;;;;;2.22;0.80;;;20.40;47.40;;;;;;4918816;29;20024;-66
2021/11/07 12:28:06;;;;;;;2.53;0.80;;;20.40;47.40;;;;;;4918884;29;20376;-67
2021/11/07 12:30:33;;;;;;;1.42;0.55;;;20.40;47.40;;;;;;4918577;29;20044;-65
2021/11/07 12:33:08;;;;;;;2.45;0.60;;;20.40;47.40;;;;;;4917380;29;20067;-65
2021/11/07 12:35:48;;;;;;;4.53;0.75;;;20.40;47.30;;;;;;4918578;29;20131;-65
2021/11/07 12:41:06;;;;;;;2.95;0.82;;;20.40;47.30;;;;;;4918638;29;20042;-65
2021/11/07 12:43:52;;;;;;;2.05;0.70;;;20.40;47.30;;;;;;4918613;29;20031;-65
2021/11/07 12:49:14;;;;;;;4.68;1.05;;;20.40;47.30;;;;;;4918509;29;20028;-66
2021/11/07 12:51:47;;;;;;;3.08;0.93;;;20.40;47.20;;;;;;4918308;29;20024;-66
2021/11/07 12:54:14;;;;;;;4.30;1.10;;;20.50;47.20;;;;;;4916948;29;20024;-66
2021/11/07 12:56:42;;;;;;;3.63;0.70;;;20.50;47.20;;;;;;4917984;29;20036;-66
2021/11/07 12:59:15;;;;;;;2.53;0.88;;;20.50;47.20;;;;;;4918101;29;20017;-66
2021/11/07 13:02:10;;;;;;;2.88;0.73;;;20.50;47.20;;;;;;4918132;29;20102;-66
2021/11/07 13:04:48;;;;;;;2.28;0.65;;;20.50;47.30;;;;;;4918082;29;20380;-66
2021/11/07 13:10:18;;;;;;;2.28;0.70;;;20.40;47.30;;;;;;4898292;29;20043;-66
2021/11/07 13:12:57;;;;;;;4.50;0.95;;;20.50;47.20;;;;;;4918048;29;20039;-65
2021/11/07 13:15:50;;;;;;;3.30;0.90;;;20.50;47.20;;;;;;4916653;29;20036;-66
2021/11/07 13:18:40;;;;;;;3.47;0.93;;;20.40;47.20;;;;;;4916553;29;20040;-66
2021/11/07 13:26:38;;;;;;;4.53;0.95;;;20.40;47.30;;;;;;4917479;29;20450;-66
2021/11/07 13:31:58;;;;;;;4.25;1.00;;;20.40;47.30;;;;;;4917462;29;20051;-66
2021/11/07 13:34:24;;;;;;;3.95;0.98;;;20.40;47.30;;;;;;4917492;29;20043;-66
2021/11/07 13:36:50;;;;;;;5.43;1.08;;;20.40;47.30;;;;;;4916094;29;20096;-66
2021/11/07 13:39:42;;;;;;;3.17;0.88;;;20.40;47.30;;;;;;4917729;29;20020;-66
2021/11/07 13:42:14;;;;;;;5.38;1.48;;;20.30;47.40;;;;;;4912971;29;20042;-65
2021/11/07 13:44:59;;;;;;;2.92;0.85;;;20.30;47.40;;;;;;4916058;29;20035;-66
2021/11/07 13:47:32;;;;;;;2.22;0.63;;;20.30;47.40;;;;;;4917903;29;20071;-67
2021/11/07 13:50:01;;;;;;;3.47;0.80;;;20.30;47.40;;;;;;4917380;29;20020;-67
2021/11/07 13:52:33;;;;;;;3.33;0.90;;;20.30;47.40;;;;;;4915924;29;20032;-66
2021/11/07 13:55:00;;;;;;;5.05;1.20;;;20.30;47.40;;;;;;4915740;29;20043;-66
2021/11/07 13:57:30;;;;;;;3.30;1.00;;;20.30;47.40;;;;;;4915763;29;20040;-66
2021/11/07 13:59:57;;;;;;;5.20;1.23;;;20.30;47.40;;;;;;4915846;29;20035;-66
2021/11/07 14:02:24;;;;;;;3.25;0.93;;;20.30;47.40;;;;;;4917140;29;20047;-66
2021/11/07 14:04:53;;;;;;;3.42;1.30;;;20.30;47.40;;;;;;4915842;29;20369;-66
2021/11/07 14:07:27;;;;;;;4.65;0.98;;;20.30;47.40;;;;;;4916934;29;20103;-66
2021/11/07 14:10:11;;;;;;;;;;;20.30;47.40;;;;;;4916087;29;20024;-66
2021/11/07 14:12:41;;;;;;;3.60;1.10;;;20.30;47.40;;;;;;4915598;29;20367;-66
2021/11/07 14:15:10;;;;;;;5.30;1.20;;;20.30;47.40;;;;;;4915534;29;20025;-66
2021/11/07 14:17:37;;;;;;;4.40;0.95;;;20.30;47.50;;;;;;4917031;29;20043;-65
2021/11/07 14:20:05;;;;;;;3.80;1.10;;;20.30;47.50;;;;;;4916786;29;20048;-65
2021/11/07 14:22:32;;;;;;;4.03;1.00;;;20.30;47.50;;;;;;4916740;29;20024;-65
2021/11/07 14:25:09;;;;;;;4.13;1.52;;;20.30;47.50;;;;;;4916631;29;20025;-65
2021/11/07 14:27:48;;;;;;;4.05;0.90;;;20.30;47.50;;;;;;4917108;29;20032;-65
2021/11/07 14:30:22;;;;;;;4.07;1.08;;;20.30;47.50;;;;;;4916684;29;20162;-65
2021/11/07 14:33:00;;;;;;;2.13;0.70;;;20.30;47.50;;;;;;4917188;29;20055;-65
2021/11/07 14:35:28;;;;;;;4.45;1.10;;;20.20;47.50;;;;;;4916733;29;20099;-65
2021/11/07 14:38:01;;;;;;;4.53;1.10;;;20.30;47.50;;;;;;4916661;29;20067;-65
2021/11/07 14:40:39;;;;;;;3.83;1.13;;;20.30;47.50;;;;;;4916681;29;20024;-65
2021/11/07 14:57:19;;;;;;;4.22;1.00;;;20.20;47.60;;;;;;4916637;29;20472;-66
2021/11/07 14:59:48;;;;;;;4.53;1.17;;;20.20;47.60;;;;;;4916133;29;20032;-66
2021/11/07 15:02:55;;;;;;;5.28;1.25;;;20.30;47.60;;;;;;4920342;29;20496;-67
2021/11/07 15:05:50;;;;;;;4.05;1.00;;;20.20;47.60;;;;;;4920268;29;20020;-66